Metar Aviation Weather Data KORD

77°F Temp
66°F Dewpoint
% Humidity
Temperature
6 MPH
10 KM/H
5 KTS
360°
Due North

Wind Speed
Partly Cloudy
Conditions
Pressure 1015.92 (hPa) - 30 (in)
Visibility 10.0 (mi) - 16 (km)

Current Conditions
KORD
Metar :KORD 191351Z 36005KT 10SM FEW040 SCT085 25/19 A3000 RMK AO2 SLP156 T02500194
Mon 19th August 08:51 am

  Metar Aviation API Data Provided by https://www.checkwx.com/ PHP scripts by weather34.com ©2019